Time;durP1;ratioP1;P1;durP2;ratioP2;P2;SDS_P1;SDS_P2;PMS_P1;PMS_P2;Temp;Humidity;BMP_temperature;BMP_pressure;BME280_temperature;BME280_humidity;BME280_pressure;Samples;Min_cycle;Max_cycle;Signal;HPM_P1;HPM_P2
2023/06/08 00:00:54;;;;;;;18.05;7.57;;;13.40;99.90;;;;;;5035153;28;20404;-69
2023/06/08 00:03:20;;;;;;;13.07;6.95;;;12.80;99.90;;;;;;5036244;28;20076;-70
2023/06/08 00:05:47;;;;;;;15.55;6.97;;;13.40;99.90;;;;;;5019951;28;20604;-70
2023/06/08 00:08:13;;;;;;;14.57;6.97;;;13.20;99.90;;;;;;5052834;28;20106;-70
2023/06/08 00:10:43;;;;;;;15.82;7.05;;;13.00;99.90;;;;;;5034979;28;20033;-69
2023/06/08 00:13:09;;;;;;;16.27;6.95;;;13.40;99.90;;;;;;5035108;28;20123;-70
2023/06/08 00:15:35;;;;;;;14.57;6.70;;;13.90;99.90;;;;;;5018099;28;20043;-70
2023/06/08 00:18:01;;;;;;;15.27;8.18;;;13.20;99.90;;;;;;5017706;28;20037;-69
2023/06/08 00:20:28;;;;;;;14.10;8.38;;;13.20;99.90;;;;;;5034064;28;20071;-69
2023/06/08 00:22:54;;;;;;;19.20;8.50;;;13.60;99.90;;;;;;5034866;28;20539;-69
2023/06/08 00:25:20;;;;;;;18.88;8.38;;;13.10;99.90;;;;;;5034225;28;20076;-70
2023/06/08 00:27:46;;;;;;;18.95;9.15;;;13.20;99.90;;;;;;5034148;28;20068;-69
2023/06/08 00:30:13;;;;;;;20.20;9.15;;;13.10;99.90;;;;;;5034756;28;20511;-70
2023/06/08 00:32:39;;;;;;;16.98;8.85;;;13.10;99.90;;;;;;5035037;28;20041;-70
2023/06/08 00:35:06;;;;;;;17.98;9.40;;;13.10;99.90;;;;;;5034602;28;20480;-70
2023/06/08 00:37:31;;;;;;;18.40;9.20;;;13.20;99.90;;;;;;5034460;28;20397;-70
2023/06/08 00:39:57;;;;;;;27.30;10.27;;;13.30;99.90;;;;;;5034650;28;20436;-70
2023/06/08 00:42:23;;;;;;;19.55;9.77;;;13.10;99.90;;;;;;5034569;28;20124;-69
2023/06/08 00:44:48;;;;;;;20.42;11.05;;;13.10;99.90;;;;;;5034658;28;20044;-69
2023/06/08 00:47:15;;;;;;;21.45;11.07;;;13.10;99.90;;;;;;5018866;28;20636;-69
2023/06/08 00:49:40;;;;;;;28.80;11.32;;;13.00;99.90;;;;;;5035793;28;20063;-69
2023/06/08 00:52:07;;;;;;;21.00;9.50;;;13.10;99.90;;;;;;5035207;28;20512;-69
2023/06/08 00:54:34;;;;;;;20.75;8.95;;;13.10;99.90;;;;;;5034173;28;20043;-69
2023/06/08 00:57:03;;;;;;;17.48;10.23;;;13.20;99.90;;;;;;5017905;28;20043;-69
2023/06/08 00:59:32;;;;;;;19.00;9.20;;;12.90;99.90;;;;;;5034740;28;20040;-70
2023/06/08 01:01:58;;;;;;;18.55;8.88;;;13.60;99.90;;;;;;5034318;28;20132;-69
2023/06/08 01:04:25;;;;;;;19.90;9.65;;;13.20;99.90;;;;;;5017189;28;20128;-69
2023/06/08 01:07:00;;;;;;;19.60;8.52;;;13.60;99.90;;;;;;5034073;28;20582;-69
2023/06/08 01:09:48;;;;;;;13.38;7.88;;;13.20;99.90;;;;;;5033988;28;20091;-70
2023/06/08 01:12:28;;;;;;;19.40;7.95;;;13.00;99.90;;;;;;5034415;28;20044;-69
2023/06/08 01:15:05;;;;;;;18.65;7.38;;;13.10;99.90;;;;;;5033940;28;20078;-69
2023/06/08 01:17:37;;;;;;;14.43;7.38;;;13.00;99.90;;;;;;5034046;28;20123;-69
2023/06/08 01:20:06;;;;;;;19.95;7.78;;;13.50;99.90;;;;;;5034091;28;20078;-70
2023/06/08 01:22:48;;;;;;;21.08;8.98;;;13.00;99.90;;;;;;5017711;28;20148;-70
2023/06/08 01:25:16;;;;;;;16.90;7.28;;;12.90;99.90;;;;;;5033726;28;20145;-69
2023/06/08 01:27:41;;;;;;;14.45;7.43;;;13.10;99.90;;;;;;5051481;28;20405;-69
2023/06/08 01:30:08;;;;;;;22.63;7.45;;;12.90;99.90;;;;;;5051980;28;20044;-69
2023/06/08 01:32:34;;;;;;;18.65;7.38;;;13.00;99.90;;;;;;5034023;28;20044;-69
2023/06/08 01:35:01;;;;;;;20.95;7.93;;;13.20;99.90;;;;;;5033358;28;20072;-69
2023/06/08 01:37:36;;;;;;;16.55;8.30;;;13.10;99.90;;;;;;5017015;28;20719;-69
2023/06/08 01:40:29;;;;;;;16.42;8.25;;;13.20;99.90;;;;;;5033078;28;20106;-69
2023/06/08 01:42:55;;;;;;;18.27;9.13;;;13.00;99.90;;;;;;5051513;28;20044;-69
2023/06/08 01:45:25;;;;;;;20.20;8.48;;;13.30;99.90;;;;;;5033348;28;20045;-70
2023/06/08 01:48:02;;;;;;;14.95;7.30;;;13.20;99.90;;;;;;5033614;28;20037;-69
2023/06/08 01:50:29;;;;;;;17.13;8.70;;;13.00;99.90;;;;;;5033893;28;20051;-69
2023/06/08 01:52:56;;;;;;;14.45;7.95;;;13.10;99.90;;;;;;5033423;28;20497;-70
2023/06/08 01:55:22;;;;;;;28.23;8.18;;;13.00;99.90;;;;;;5035129;28;20029;-70
2023/06/08 01:57:48;;;;;;;22.38;8.70;;;13.20;99.90;;;;;;5017967;28;20037;-69
2023/06/08 02:00:19;;;;;;;16.45;7.82;;;13.10;99.90;;;;;;5017782;28;20032;-69
2023/06/08 02:02:44;;;;;;;23.17;7.97;;;13.20;99.90;;;;;;5034181;28;20077;-69
2023/06/08 02:05:12;;;;;;;20.45;10.48;;;13.40;99.90;;;;;;5032994;28;20083;-69
2023/06/08 02:07:39;;;;;;;17.85;8.85;;;13.30;99.90;;;;;;5016693;28;20045;-69
2023/06/08 02:10:06;;;;;;;19.77;8.32;;;13.30;99.90;;;;;;5017296;28;20435;-69
2023/06/08 02:12:32;;;;;;;20.45;7.93;;;13.10;99.90;;;;;;5033632;28;20471;-69
2023/06/08 02:14:58;;;;;;;18.10;8.63;;;13.10;99.90;;;;;;5016668;28;20080;-70
2023/06/08 02:17:27;;;;;;;23.48;9.88;;;13.10;99.90;;;;;;5033152;28;20048;-69
2023/06/08 02:19:56;;;;;;;21.98;8.73;;;13.20;99.90;;;;;;5033197;28;20056;-69
2023/06/08 02:22:23;;;;;;;21.83;8.32;;;13.20;99.90;;;;;;5033482;28;20400;-69
2023/06/08 02:24:49;;;;;;;25.88;10.20;;;13.20;99.90;;;;;;5016376;28;20041;-69
2023/06/08 02:27:16;;;;;;;20.60;9.20;;;13.00;99.90;;;;;;5032763;28;20048;-69
2023/06/08 02:29:42;;;;;;;18.77;8.60;;;13.10;99.90;;;;;;5033309;28;20048;-69
2023/06/08 02:32:08;;;;;;;17.52;8.23;;;13.30;99.90;;;;;;5016683;28;20037;-70
2023/06/08 02:34:39;;;;;;;17.42;8.35;;;13.10;99.90;;;;;;5032490;28;20043;-69
2023/06/08 02:37:05;;;;;;;21.77;8.98;;;13.10;99.90;;;;;;5017197;28;20090;-69
2023/06/08 02:39:31;;;;;;;25.42;11.25;;;12.90;99.90;;;;;;5032915;28;20412;-68
2023/06/08 02:41:56;;;;;;;20.83;9.38;;;13.00;99.90;;;;;;5033124;28;20037;-70
2023/06/08 02:44:22;;;;;;;21.25;9.77;;;13.70;99.90;;;;;;5032640;28;20033;-69
2023/06/08 02:46:48;;;;;;;16.35;9.18;;;13.30;99.90;;;;;;5016534;28;20041;-69
2023/06/08 02:49:13;;;;;;;24.45;9.93;;;13.20;99.90;;;;;;5033089;28;20069;-70
2023/06/08 02:51:39;;;;;;;20.50;10.25;;;13.30;99.90;;;;;;5036387;28;20098;-69
2023/06/08 02:54:05;;;;;;;20.15;9.38;;;13.30;99.90;;;;;;5036618;28;20041;-69
2023/06/08 02:56:30;;;;;;;19.98;9.73;;;13.40;99.90;;;;;;5036717;28;20044;-70
2023/06/08 02:58:56;;;;;;;24.60;10.45;;;13.40;99.90;;;;;;5037767;28;20044;-70
2023/06/08 03:01:23;;;;;;;17.85;10.70;;;13.00;99.90;;;;;;5038073;28;20124;-70
2023/06/08 03:03:53;;;;;;;18.80;9.93;;;13.00;99.90;;;;;;5037470;28;20037;-70
2023/06/08 03:06:19;;;;;;;19.65;9.85;;;13.30;99.90;;;;;;5036088;28;20115;-70
2023/06/08 03:08:46;;;;;;;19.80;9.50;;;13.20;99.90;;;;;;5035945;28;20163;-70
2023/06/08 03:11:13;;;;;;;17.17;8.43;;;13.20;99.90;;;;;;5036363;28;20049;-69
2023/06/08 03:13:38;;;;;;;19.55;9.55;;;13.10;99.90;;;;;;5036232;28;20041;-69
2023/06/08 03:16:04;;;;;;;27.27;10.77;;;13.20;99.90;;;;;;5035614;28;20045;-69
2023/06/08 03:18:30;;;;;;;26.17;11.00;;;13.70;99.90;;;;;;5036012;28;20041;-69
2023/06/08 03:20:57;;;;;;;24.92;9.50;;;13.30;99.90;;;;;;5054149;28;20033;-69
2023/06/08 03:23:22;;;;;;;20.23;10.55;;;13.20;99.90;;;;;;5036179;28;20090;-70
2023/06/08 03:25:49;;;;;;;17.65;10.07;;;13.20;99.90;;;;;;5053486;28;20477;-69
2023/06/08 03:28:18;;;;;;;19.35;9.43;;;13.50;99.90;;;;;;5035621;28;20083;-69
2023/06/08 03:30:44;;;;;;;20.55;9.85;;;13.30;99.90;;;;;;5035941;28;20044;-69
2023/06/08 03:33:11;;;;;;;16.95;9.02;;;13.50;99.90;;;;;;5053796;28;20032;-69
2023/06/08 03:35:38;;;;;;;17.40;8.73;;;13.20;99.90;;;;;;5035388;28;20048;-69
2023/06/08 03:38:03;;;;;;;21.48;10.32;;;13.40;99.90;;;;;;5035889;28;20415;-69
2023/06/08 03:40:29;;;;;;;20.38;9.20;;;13.20;99.90;;;;;;5035853;28;20132;-69
2023/06/08 03:42:54;;;;;;;21.95;9.02;;;13.20;99.90;;;;;;5036075;28;20497;-69
2023/06/08 03:45:20;;;;;;;20.08;9.00;;;13.50;99.90;;;;;;5037882;28;20043;-69
2023/06/08 03:47:46;;;;;;;18.90;9.25;;;13.20;99.90;;;;;;5035896;28;20044;-70
2023/06/08 03:50:12;;;;;;;18.67;8.63;;;13.30;99.90;;;;;;5035846;28;20040;-69
2023/06/08 03:52:38;;;;;;;23.60;8.50;;;13.40;99.90;;;;;;5035556;28;20129;-69
2023/06/08 03:55:08;;;;;;;23.40;9.90;;;13.50;99.90;;;;;;5053041;28;20106;-69
2023/06/08 03:57:34;;;;;;;16.83;8.50;;;13.30;99.90;;;;;;5053155;28;20059;-70
2023/06/08 04:00:00;;;;;;;13.60;7.20;;;13.50;99.90;;;;;;5035576;28;20486;-69
2023/06/08 04:02:25;;;;;;;17.35;7.65;;;13.70;99.90;;;;;;5034598;28;20083;-68
2023/06/08 04:04:53;;;;;;;22.25;7.60;;;13.40;99.90;;;;;;5035381;28;20048;-70
2023/06/08 04:07:20;;;;;;;18.60;6.93;;;13.30;99.90;;;;;;5035083;28;20041;-68
2023/06/08 04:09:46;;;;;;;16.70;6.47;;;13.30;99.90;;;;;;5035328;28;20044;-69
2023/06/08 04:12:12;;;;;;;22.13;6.50;;;13.20;99.90;;;;;;5018721;28;20037;-69
2023/06/08 04:14:38;;;;;;;15.38;6.50;;;13.10;99.90;;;;;;5034763;28;20048;-69
2023/06/08 04:17:03;;;;;;;11.88;5.75;;;13.00;99.90;;;;;;5035314;28;20040;-69
2023/06/08 04:19:29;;;;;;;16.80;6.55;;;13.10;99.90;;;;;;5018286;28;20041;-69
2023/06/08 04:21:56;;;;;;;14.13;5.65;;;13.20;99.90;;;;;;5034718;28;20048;-69
2023/06/08 04:24:29;;;;;;;19.90;6.50;;;;;;;;;;5033080;28;20443;-69
2023/06/08 04:26:56;;;;;;;17.13;5.80;;;13.20;99.90;;;;;;5033837;28;20404;-69
2023/06/08 04:29:21;;;;;;;15.02;5.90;;;13.30;99.90;;;;;;5034446;28;20087;-69
2023/06/08 04:31:47;;;;;;;15.23;6.25;;;14.00;99.90;;;;;;5034836;28;20048;-69
2023/06/08 04:34:13;;;;;;;16.67;6.20;;;13.50;99.90;;;;;;5034319;28;20068;-69
2023/06/08 04:36:43;;;;;;;17.23;5.93;;;13.20;99.90;;;;;;5034619;28;20059;-69
2023/06/08 04:39:09;;;;;;;16.35;6.03;;;13.60;99.90;;;;;;5034404;28;20045;-69
2023/06/08 04:41:35;;;;;;;15.15;6.47;;;13.40;99.90;;;;;;5034574;28;20041;-69
2023/06/08 04:44:02;;;;;;;13.65;6.40;;;13.20;99.90;;;;;;5018061;28;20072;-69
2023/06/08 04:46:33;;;;;;;11.77;5.68;;;13.10;99.90;;;;;;5017510;28;20037;-69
2023/06/08 04:48:59;;;;;;;14.00;6.05;;;13.20;99.90;;;;;;5034206;28;20033;-69
2023/06/08 04:51:29;;;;;;;13.65;5.97;;;13.70;99.90;;;;;;5034289;28;20604;-69
2023/06/08 04:53:59;;;;;;;16.63;5.85;;;13.90;99.90;;;;;;5034073;28;20041;-70
2023/06/08 04:56:28;;;;;;;12.57;6.38;;;13.70;99.90;;;;;;5017848;28;20455;-69
2023/06/08 04:58:53;;;;;;;15.45;6.80;;;13.70;99.90;;;;;;5034107;28;20041;-69
2023/06/08 05:01:19;;;;;;;14.82;5.63;;;13.60;99.90;;;;;;5034412;28;20558;-69
2023/06/08 05:03:46;;;;;;;10.85;5.10;;;13.70;99.90;;;;;;5034210;28;20033;-70
2023/06/08 05:06:12;;;;;;;12.15;5.60;;;13.70;99.90;;;;;;5033682;28;20037;-69
2023/06/08 05:08:38;;;;;;;19.80;7.05;;;14.00;99.90;;;;;;5033561;28;20099;-69
2023/06/08 05:11:03;;;;;;;15.65;5.57;;;13.70;99.90;;;;;;5034398;28;20033;-70
2023/06/08 05:13:29;;;;;;;20.05;6.13;;;13.80;99.90;;;;;;5033997;28;20037;-70
2023/06/08 05:15:58;;;;;;;17.52;6.40;;;13.80;99.90;;;;;;5017281;28;20090;-70
2023/06/08 05:18:28;;;;;;;24.60;7.38;;;13.80;99.90;;;;;;5033592;28;20087;-69
2023/06/08 05:20:53;;;;;;;18.58;7.20;;;13.90;99.90;;;;;;5034266;28;20559;-69
2023/06/08 05:23:19;;;;;;;17.52;6.95;;;14.10;99.90;;;;;;5033811;28;20033;-69
2023/06/08 05:25:44;;;;;;;15.95;6.55;;;13.90;99.90;;;;;;5050166;28;20131;-69
2023/06/08 05:28:11;;;;;;;14.30;6.50;;;14.10;99.90;;;;;;5033371;28;20048;-69
2023/06/08 05:30:36;;;;;;;16.08;7.53;;;13.90;99.90;;;;;;5033915;28;20033;-69
2023/06/08 05:33:02;;;;;;;18.45;6.40;;;14.10;99.90;;;;;;5033875;28;20044;-69
2023/06/08 05:35:28;;;;;;;19.05;5.47;;;13.80;99.90;;;;;;5033671;28;20045;-70
2023/06/08 05:37:54;;;;;;;13.88;5.90;;;14.00;99.90;;;;;;5034240;28;20098;-70
2023/06/08 05:40:20;;;;;;;11.48;5.82;;;13.80;99.90;;;;;;5033869;28;20045;-69
2023/06/08 05:42:46;;;;;;;17.17;6.50;;;14.00;99.90;;;;;;5033820;28;20451;-71
2023/06/08 05:45:11;;;;;;;18.35;7.15;;;14.20;99.90;;;;;;5024917;28;20029;-69
2023/06/08 05:47:38;;;;;;;19.77;7.47;;;14.30;99.90;;;;;;5021267;28;20069;-69
2023/06/08 05:50:04;;;;;;;15.90;6.25;;;14.40;99.90;;;;;;5018324;28;20033;-69
2023/06/08 05:52:32;;;;;;;17.73;8.15;;;14.40;99.90;;;;;;5014992;28;20040;-69
2023/06/08 05:54:58;;;;;;;16.98;6.63;;;14.30;99.90;;;;;;5000021;28;20349;-70
2023/06/08 05:57:24;;;;;;;20.48;6.65;;;14.90;99.90;;;;;;5010561;28;20065;-70
2023/06/08 05:59:50;;;;;;;19.88;6.72;;;14.60;99.90;;;;;;5022921;28;20076;-69
2023/06/08 06:02:16;;;;;;;16.08;5.88;;;14.50;99.90;;;;;;5023919;28;20481;-69
2023/06/08 06:04:42;;;;;;;16.02;7.30;;;15.20;99.90;;;;;;5015347;28;20044;-69
2023/06/08 06:07:08;;;;;;;16.98;6.47;;;14.90;99.90;;;;;;5016292;28;20049;-70
2023/06/08 06:09:34;;;;;;;18.95;7.63;;;14.90;99.90;;;;;;5013289;28;20722;-69
2023/06/08 06:11:59;;;;;;;14.55;5.95;;;15.00;99.90;;;;;;5015873;28;20408;-69
2023/06/08 06:14:27;;;;;;;18.30;5.65;;;15.00;99.90;;;;;;4992264;28;20707;-69
2023/06/08 06:16:53;;;;;;;14.57;7.15;;;15.80;99.90;;;;;;5023118;28;20037;-70
2023/06/08 06:19:18;;;;;;;19.80;6.35;;;15.40;99.90;;;;;;5031919;28;20518;-69
2023/06/08 06:21:44;;;;;;;10.45;5.07;;;15.20;99.90;;;;;;5033020;28;20049;-69
2023/06/08 06:24:09;;;;;;;12.05;5.20;;;15.70;99.90;;;;;;5016866;28;20424;-70
2023/06/08 06:26:35;;;;;;;15.38;6.28;;;15.40;99.90;;;;;;5036576;28;20069;-69
2023/06/08 06:29:01;;;;;;;15.48;5.30;;;15.50;99.90;;;;;;5036265;28;20451;-69
2023/06/08 06:31:26;;;;;;;15.77;5.15;;;15.60;99.90;;;;;;5037010;28;20479;-69
2023/06/08 06:33:52;;;;;;;14.75;6.55;;;15.90;99.90;;;;;;5036676;28;20033;-69
2023/06/08 06:36:17;;;;;;;20.52;5.35;;;15.60;99.90;;;;;;5036451;28;20048;-69
2023/06/08 06:38:43;;;;;;;13.80;5.35;;;16.10;99.90;;;;;;5036693;28;20424;-70
2023/06/08 06:41:08;;;;;;;17.35;5.43;;;15.80;99.90;;;;;;5037195;28;20057;-69
2023/06/08 06:43:34;;;;;;;19.17;5.78;;;16.20;99.90;;;;;;5036843;28;20048;-69
2023/06/08 06:46:00;;;;;;;12.77;6.05;;;16.20;99.90;;;;;;5036303;28;20048;-70
2023/06/08 06:48:25;;;;;;;17.17;5.53;;;16.40;99.90;;;;;;5036658;28;20063;-69
2023/06/08 06:50:51;;;;;;;12.23;5.90;;;16.20;99.90;;;;;;5036702;28;20040;-69
2023/06/08 06:53:16;;;;;;;16.73;6.28;;;16.20;99.90;;;;;;5036805;28;20094;-70
2023/06/08 06:55:42;;;;;;;15.05;6.05;;;16.20;99.90;;;;;;5036472;28;20133;-69
2023/06/08 06:58:08;;;;;;;18.88;6.43;;;16.10;99.90;;;;;;5036657;28;20047;-70
2023/06/08 07:00:37;;;;;;;14.52;6.22;;;16.20;99.90;;;;;;5036464;28;20037;-70
2023/06/08 07:03:06;;;;;;;15.23;5.85;;;16.60;99.90;;;;;;5036405;28;20507;-69
2023/06/08 07:05:33;;;;;;;14.18;6.63;;;16.60;99.90;;;;;;5036295;28;20142;-69
2023/06/08 07:07:58;;;;;;;12.60;5.35;;;16.10;99.90;;;;;;5036014;28;20386;-69
2023/06/08 07:10:24;;;;;;;18.77;6.63;;;16.20;99.90;;;;;;5036314;28;20044;-69
2023/06/08 07:12:50;;;;;;;16.90;6.40;;;16.20;99.90;;;;;;5036585;28;20108;-69
2023/06/08 07:15:17;;;;;;;14.10;5.22;;;16.50;99.90;;;;;;5035939;28;20511;-69
2023/06/08 07:17:44;;;;;;;17.38;5.43;;;16.50;99.90;;;;;;5037708;28;20079;-69
2023/06/08 07:20:09;;;;;;;19.95;5.80;;;16.60;99.90;;;;;;5037047;28;20048;-69
2023/06/08 07:22:35;;;;;;;15.02;5.60;;;16.40;99.90;;;;;;5036039;28;20401;-69
2023/06/08 07:25:02;;;;;;;13.95;6.05;;;16.40;99.90;;;;;;5035624;28;20409;-70
2023/06/08 07:27:27;;;;;;;12.40;5.47;;;16.70;99.90;;;;;;5036078;28;20296;-69
2023/06/08 07:29:55;;;;;;;14.48;5.70;;;16.80;99.90;;;;;;5036031;28;20496;-69
2023/06/08 07:32:20;;;;;;;14.38;5.00;;;17.20;99.90;;;;;;5035859;28;20120;-69
2023/06/08 07:34:47;;;;;;;16.50;5.85;;;17.10;99.90;;;;;;5035370;28;20145;-69
2023/06/08 07:37:13;;;;;;;13.32;5.07;;;16.50;99.90;;;;;;5034503;28;20052;-69
2023/06/08 07:39:38;;;;;;;11.70;5.30;;;16.90;99.90;;;;;;5035812;28;20123;-69
2023/06/08 07:42:05;;;;;;;13.38;4.90;;;17.00;99.90;;;;;;5036008;28;20135;-69
2023/06/08 07:44:31;;;;;;;15.77;5.25;;;17.20;99.90;;;;;;5035387;28;20574;-69
2023/06/08 07:47:00;;;;;;;20.25;6.03;;;17.10;99.90;;;;;;5035519;28;20126;-70
2023/06/08 07:49:28;;;;;;;18.63;5.65;;;16.90;99.90;;;;;;5035548;28;20094;-70
2023/06/08 07:51:54;;;;;;;15.10;5.40;;;18.10;99.90;;;;;;5035240;28;20087;-70
2023/06/08 07:54:19;;;;;;;10.38;5.18;;;17.50;99.90;;;;;;5035009;28;20496;-69
2023/06/08 07:56:49;;;;;;;15.07;4.43;;;17.40;99.90;;;;;;5035563;28;20069;-69
2023/06/08 07:59:15;;;;;;;14.02;5.03;;;17.60;99.90;;;;;;5035488;28;20045;-70
2023/06/08 08:01:42;;;;;;;12.95;4.68;;;17.80;99.90;;;;;;5036372;28;20504;-69
2023/06/08 08:04:08;;;;;;;12.93;5.10;;;17.50;99.90;;;;;;5035597;28;20044;-70
2023/06/08 08:06:34;;;;;;;18.98;5.78;;;17.60;99.90;;;;;;5034899;28;20033;-69
2023/06/08 08:09:00;;;;;;;13.15;5.35;;;17.80;99.90;;;;;;5035014;28;20044;-69
2023/06/08 08:11:26;;;;;;;10.75;5.22;;;17.50;99.90;;;;;;5053112;28;20041;-69
2023/06/08 08:13:52;;;;;;;18.40;6.75;;;17.80;99.90;;;;;;5035327;28;20374;-69
2023/06/08 08:16:18;;;;;;;14.60;5.70;;;18.30;99.90;;;;;;5034718;28;20044;-69
2023/06/08 08:18:44;;;;;;;14.70;5.40;;;18.20;99.90;;;;;;5034846;28;20128;-69
2023/06/08 08:21:09;;;;;;;14.05;5.72;;;18.00;99.90;;;;;;5034998;28;20128;-69
2023/06/08 08:23:35;;;;;;;16.38;5.10;;;18.20;99.90;;;;;;5034928;28;20044;-69
2023/06/08 08:26:01;;;;;;;12.77;5.10;;;18.30;99.90;;;;;;5034513;28;20063;-69
2023/06/08 08:28:28;;;;;;;15.32;4.43;;;18.10;99.90;;;;;;5018506;28;20099;-69
2023/06/08 08:30:53;;;;;;;16.00;5.70;;;18.20;99.90;;;;;;5034789;28;20044;-69
2023/06/08 08:33:19;;;;;;;13.02;4.95;;;18.40;99.90;;;;;;5034815;28;20465;-69
2023/06/08 08:35:45;;;;;;;10.40;4.60;;;18.60;99.90;;;;;;5034592;28;20080;-69
2023/06/08 08:38:10;;;;;;;14.25;4.93;;;18.90;99.90;;;;;;5017966;28;20040;-69
2023/06/08 08:40:36;;;;;;;13.40;4.68;;;18.60;99.90;;;;;;5034620;28;20037;-69
2023/06/08 08:43:15;;;;;;;11.65;4.63;;;19.00;99.90;;;;;;5034591;28;20043;-69
2023/06/08 08:45:43;;;;;;;10.73;4.50;;;18.60;99.90;;;;;;5033957;28;20551;-69
2023/06/08 08:48:12;;;;;;;10.90;4.78;;;19.00;99.90;;;;;;5017380;28;20059;-69
2023/06/08 08:50:40;;;;;;;15.43;5.60;;;18.60;99.90;;;;;;5034470;28;20036;-69
2023/06/08 08:53:06;;;;;;;12.27;5.38;;;18.70;99.90;;;;;;5034362;28;20101;-69
2023/06/08 08:55:33;;;;;;;12.43;5.68;;;18.50;99.90;;;;;;5034116;28;20055;-69
2023/06/08 08:58:05;;;;;;;14.70;4.90;;;18.50;99.90;;;;;;5034069;28;20036;-69
2023/06/08 09:00:32;;;;;;;14.25;4.70;;;19.00;99.90;;;;;;5018015;28;20397;-69
2023/06/08 09:02:58;;;;;;;16.85;5.93;;;18.80;99.90;;;;;;5019452;28;20041;-69
2023/06/08 09:05:23;;;;;;;12.52;5.15;;;19.00;99.90;;;;;;5034698;28;20043;-69
2023/06/08 09:07:56;;;;;;;13.73;5.70;;;20.00;99.90;;;;;;5017338;28;20041;-69
2023/06/08 09:10:24;;;;;;;12.63;4.95;;;19.30;99.90;;;;;;5017700;28;20116;-69
2023/06/08 09:12:51;;;;;;;17.48;5.82;;;19.00;99.90;;;;;;5034316;28;20041;-69
2023/06/08 09:15:30;;;;;;;14.73;4.90;;;19.00;99.90;;;;;;5033900;28;20493;-69
2023/06/08 09:17:57;;;;;;;11.32;5.28;;;18.90;99.90;;;;;;5017381;28;20044;-69
2023/06/08 09:20:29;;;;;;;15.43;5.40;;;18.80;99.90;;;;;;5017865;28;20374;-69
2023/06/08 09:22:55;;;;;;;11.50;5.25;;;19.00;99.90;;;;;;5033793;28;20094;-69
2023/06/08 09:25:36;;;;;;;14.98;5.13;;;19.00;99.90;;;;;;5033699;28;20038;-69
2023/06/08 09:28:25;;;;;;;13.48;5.03;;;19.40;99.90;;;;;;5033761;28;20124;-69
2023/06/08 09:30:52;;;;;;;16.58;4.90;;;19.40;99.90;;;;;;5034040;28;20033;-69
2023/06/08 09:33:23;;;;;;;9.88;4.28;;;19.50;99.90;;;;;;5033623;28;20045;-69
2023/06/08 09:36:04;;;;;;;12.07;4.43;;;19.50;99.90;;;;;;5016940;28;20033;-69
2023/06/08 09:38:32;;;;;;;12.35;4.30;;;19.60;99.90;;;;;;5033806;28;20389;-69
2023/06/08 09:41:20;;;;;;;20.38;4.38;;;19.80;99.90;;;;;;5017315;28;20037;-69
2023/06/08 09:43:48;;;;;;;13.43;4.10;;;19.50;99.90;;;;;;5017417;28;20052;-69
2023/06/08 09:46:39;;;;;;;9.30;3.63;;;19.30;99.90;;;;;;5033230;28;20041;-69
2023/06/08 09:49:11;;;;;;;11.40;4.45;;;19.90;99.90;;;;;;5033622;28;20444;-69
2023/06/08 09:51:37;;;;;;;12.73;4.50;;;20.20;99.90;;;;;;5017358;28;20544;-70
2023/06/08 09:54:05;;;;;;;11.10;4.30;;;19.80;99.90;;;;;;5051269;28;20033;-70
2023/06/08 09:56:32;;;;;;;8.50;4.18;;;19.80;99.90;;;;;;5033388;28;20405;-69
2023/06/08 09:59:06;;;;;;;16.92;4.13;;;20.40;99.90;;;;;;5033333;28;20166;-70
2023/06/08 10:01:55;;;;;;;11.68;4.45;;;19.90;99.90;;;;;;5037456;28;20526;-70
2023/06/08 10:04:21;;;;;;;14.40;5.18;;;19.90;99.90;;;;;;5037124;28;20497;-70
2023/06/08 10:06:51;;;;;;;9.10;3.97;;;20.00;99.90;;;;;;5037516;28;20049;-70
2023/06/08 10:09:21;;;;;;;11.55;4.35;;;20.10;99.90;;;;;;5037195;28;20041;-70
2023/06/08 10:11:47;;;;;;;16.30;3.78;;;20.20;99.90;;;;;;5037461;28;20037;-70
2023/06/08 10:14:14;;;;;;;15.40;4.78;;;20.10;99.90;;;;;;5020510;28;20082;-68
2023/06/08 10:16:41;;;;;;;15.52;4.90;;;19.80;99.90;;;;;;5037393;28;20047;-70
2023/06/08 10:19:06;;;;;;;16.38;5.05;;;21.00;99.90;;;;;;5037013;28;20099;-70
2023/06/08 10:21:32;;;;;;;17.17;4.78;;;20.30;99.90;;;;;;5037511;28;20408;-70
2023/06/08 10:23:59;;;;;;;8.68;4.78;;;20.40;99.90;;;;;;5020797;28;20109;-70
2023/06/08 10:26:26;;;;;;;14.45;4.80;;;20.10;99.90;;;;;;5036661;28;20056;-70
2023/06/08 10:29:06;;;;;;;13.02;4.32;;;20.50;99.90;;;;;;5020463;28;20037;-70
2023/06/08 10:31:38;;;;;;;11.70;4.32;;;20.40;99.90;;;;;;5020464;28;20408;-70
2023/06/08 10:34:12;;;;;;;12.18;4.63;;;20.30;99.90;;;;;;5037358;28;20519;-70
2023/06/08 10:36:42;;;;;;;16.15;5.13;;;20.60;99.90;;;;;;5036965;28;20045;-70
2023/06/08 10:39:16;;;;;;;9.93;4.07;;;20.80;99.90;;;;;;5020338;28;20045;-70
2023/06/08 10:41:57;;;;;;;12.93;4.70;;;20.20;99.90;;;;;;5036861;28;20098;-70
2023/06/08 10:44:31;;;;;;;11.90;4.40;;;20.00;99.90;;;;;;5036663;28;20051;-69
2023/06/08 10:47:05;;;;;;;10.20;4.68;;;20.80;99.90;;;;;;5036855;28;20041;-70
2023/06/08 10:49:35;;;;;;;11.68;4.60;;;20.20;99.90;;;;;;5036593;28;20036;-70
2023/06/08 10:52:04;;;;;;;16.13;4.35;;;20.10;99.90;;;;;;5036821;28;20382;-70
2023/06/08 10:54:30;;;;;;;15.10;4.60;;;20.20;99.90;;;;;;5037507;28;20048;-70
2023/06/08 10:57:04;;;;;;;11.68;3.92;;;20.50;99.90;;;;;;5038966;28;20128;-70
2023/06/08 10:59:36;;;;;;;11.95;4.30;;;20.50;99.90;;;;;;5036407;28;20085;-70
2023/06/08 11:02:05;;;;;;;14.00;4.03;;;20.60;99.90;;;;;;5036924;28;20037;-70
2023/06/08 11:04:33;;;;;;;11.85;4.75;;;20.80;99.90;;;;;;5036287;28;20041;-69
2023/06/08 11:07:03;;;;;;;10.27;4.25;;;20.40;99.90;;;;;;5036208;28;20098;-70
2023/06/08 11:09:36;;;;;;;15.00;4.85;;;20.50;99.90;;;;;;5019810;28;20048;-70
2023/06/08 11:12:03;;;;;;;8.10;4.75;;;20.60;99.90;;;;;;5036128;28;20037;-70
2023/06/08 11:14:29;;;;;;;9.68;4.10;;;20.70;99.90;;;;;;5036193;28;20037;-70
2023/06/08 11:16:56;;;;;;;11.60;3.75;;;21.00;99.90;;;;;;5036395;28;20190;-70
2023/06/08 11:19:28;;;;;;;10.40;3.83;;;22.00;99.90;;;;;;5035875;28;20123;-70
2023/06/08 11:21:54;;;;;;;10.48;4.03;;;20.90;99.90;;;;;;5036188;28;20040;-70
2023/06/08 11:24:28;;;;;;;10.88;3.78;;;21.10;99.90;;;;;;5035826;28;20047;-70
2023/06/08 11:27:01;;;;;;;9.00;3.47;;;21.10;99.90;;;;;;5036054;28;20045;-70
2023/06/08 11:29:27;;;;;;;;;;;20.80;99.90;;;;;;5036856;28;20120;-70
2023/06/08 11:31:54;;;;;;;10.32;3.60;;;21.60;99.90;;;;;;5036024;28;20003;-70
2023/06/08 11:34:22;;;;;;;8.98;4.28;;;21.10;99.90;;;;;;5035438;28;20051;-70
2023/06/08 11:36:49;;;;;;;10.45;4.07;;;21.60;99.90;;;;;;5035956;28;20056;-70
2023/06/08 11:39:15;;;;;;;13.80;4.70;;;21.50;99.90;;;;;;5035564;28;20044;-70
2023/06/08 11:41:46;;;;;;;13.30;4.22;;;21.60;99.90;;;;;;5019384;28;20045;-70
2023/06/08 11:44:13;;;;;;;10.02;4.25;;;21.30;99.90;;;;;;5035724;28;20128;-71
2023/06/08 11:46:39;;;;;;;12.82;4.00;;;20.70;99.90;;;;;;5035499;28;20123;-70
2023/06/08 11:49:09;;;;;;;13.80;4.65;;;22.20;99.90;;;;;;5035340;28;20476;-70
2023/06/08 11:51:50;;;;;;;12.70;5.00;;;20.90;99.90;;;;;;5035765;28;20045;-70
2023/06/08 11:54:16;;;;;;;14.40;4.85;;;21.20;99.90;;;;;;5035713;28;20044;-70
2023/06/08 11:56:45;;;;;;;9.05;4.03;;;21.50;99.90;;;;;;5035841;28;20047;-70
2023/06/08 11:59:11;;;;;;;15.65;4.90;;;21.30;99.90;;;;;;5028459;28;20052;-70
2023/06/08 12:01:52;;;;;;;12.90;3.95;;;21.40;99.90;;;;;;5033895;28;20516;-70
2023/06/08 12:04:19;;;;;;;10.77;5.47;;;21.30;99.90;;;;;;5030267;28;20038;-69
2023/06/08 12:06:45;;;;;;;11.05;4.20;;;21.60;99.90;;;;;;5022699;28;20539;-69
2023/06/08 12:09:10;;;;;;;11.82;5.53;;;21.30;99.90;;;;;;5018100;28;20033;-70
2023/06/08 12:11:36;;;;;;;16.20;6.40;;;22.30;99.90;;;;;;5015010;28;20041;-70
2023/06/08 12:14:03;;;;;;;12.90;5.30;;;22.50;99.90;;;;;;5022303;28;20436;-69
2023/06/08 12:16:42;;;;;;;9.77;4.55;;;21.90;99.90;;;;;;5012571;28;20056;-70
2023/06/08 12:19:08;;;;;;;17.10;6.18;;;21.70;99.90;;;;;;5035671;28;20033;-69
2023/06/08 12:21:40;;;;;;;15.43;5.95;;;20.60;99.90;;;;;;5011407;28;20610;-69
2023/06/08 12:24:06;;;;;;;12.30;6.20;;;21.00;99.90;;;;;;5017831;28;20029;-70
2023/06/08 12:26:32;;;;;;;17.95;5.28;;;21.00;99.90;;;;;;4994042;28;20083;-70
2023/06/08 12:29:05;;;;;;;9.35;4.07;;;21.50;99.90;;;;;;5017898;28;20044;-69
2023/06/08 12:31:31;;;;;;;11.70;4.03;;;21.80;99.90;;;;;;5045232;28;20613;-70
2023/06/08 12:33:56;;;;;;;8.25;4.05;;;21.50;99.90;;;;;;5026699;28;20037;-70
2023/06/08 12:36:22;;;;;;;11.23;4.57;;;21.30;99.90;;;;;;5014683;28;20408;-71
2023/06/08 12:38:48;;;;;;;11.63;4.22;;;21.20;99.90;;;;;;5030958;28;20044;-70
2023/06/08 12:41:14;;;;;;;10.00;4.28;;;21.50;99.90;;;;;;5032973;28;20041;-69